ADDS METAR Data INFO
IDs: Format: Raw Decoded Include TAF

Data at: 1749 UTC 21 Oct 2017

KGZH 211653Z AUTO 12007KT 10SM SCT021 27/19 A3019 RMK AO2 SLP220 T02720194
KGZH 211553Z AUTO 13010KT 10SM CLR 24/19 A3019 RMK AO2 SLP221 T02440189
KGZH 211453Z AUTO 10007KT 10SM CLR 22/18 A3019 RMK AO2 SLP221 T02170183 51011
KGZH 211353Z AUTO 10008KT 10SM CLR 19/18 A3019 RMK AO2 SLP220 T01940178
KGZH 211253Z AUTO 00000KT 10SM CLR 16/14 A3018 RMK AO2 SLP217 T01560144
KGZH 211153Z AUTO 00000KT 10SM CLR 13/12 A3016 RMK AO2 SLP210 T01330122 10150 20133 53013
KGZH 211053Z AUTO 00000KT 9SM CLR 13/12 A3015 RMK AO2 SLP206 T01330122
KGZH 210953Z AUTO 00000KT 10SM CLR 14/13 A3013 RMK AO2 SLP200 T01390128
KGZH 210853Z AUTO 00000KT 10SM CLR 14/13 A3012 RMK AO2 SLP196 T01390133 56007
KGZH 210753Z AUTO 00000KT 10SM CLR 14/13 A3013 RMK AO2 SLP199 T01440133
KGZH 210653Z AUTO 00000KT 10SM CLR 15/14 A3013 RMK AO2 SLP200 T01500139
KGZH 210553Z AUTO 00000KT 10SM CLR 15/14 A3014 RMK AO2 SLP203 T01500139 10200 20150 402830111 58002
KGZH 210453Z AUTO 00000KT 10SM CLR 16/14 A3015 RMK AO2 SLP205 T01560144
KGZH 210353Z AUTO 00000KT 10SM CLR 16/15 A3015 RMK AO2 SLP208 T01610150
KGZH 210253Z AUTO 00000KT 10SM CLR 17/16 A3015 RMK AO2 SLP206 T01720156 53007
KGZH 210153Z AUTO 00000KT 10SM CLR 17/16 A3013 RMK AO2 SLP201 T01720161
KGZH 210053Z AUTO 00000KT 10SM CLR 18/17 A3013 RMK AO2 SLP201 T01830167
KGZH 202353Z AUTO 00000KT 10SM CLR 20/17 A3013 RMK AO2 SLP199 T02000167 10283 20194 53003
KGZH 202253Z AUTO 05004KT 10SM CLR 23/17 A3011 RMK AO2 SLP195 T02280172
KGZH 202153Z AUTO 05004KT 10SM CLR 25/16 A3012 RMK AO2 SLP196 T02500161
KGZH 202053Z AUTO 05005KT 10SM CLR 27/15 A3012 RMK AO2 SLP196 T02670150 56020
KGZH 201953Z AUTO 06005KT 10SM CLR 28/14 A3013 RMK AO2 SLP198 T02830144
KGZH 201853Z AUTO 11009KT 10SM CLR 28/14 A3014 RMK AO2 SLP203 T02830144
KGZH 201753Z AUTO 11007KT 10SM CLR 27/16 A3018 RMK AO2 SLP216 T02670156 10272 20111 58022
KGZH 201653Z AUTO 06007KT 10SM CLR 26/16 A3021 RMK AO2 SLP227 T02610156
KGZH 201553Z AUTO 09008KT 10SM CLR 24/15 A3023 RMK AO2 SLP235 T02440150
KGZH 201453Z AUTO 10005KT 10SM CLR 22/14 A3024 RMK AO2 SLP239 T02170144 51008
KGZH 201353Z AUTO 00000KT 10SM CLR 19/14 A3024 RMK AO2 SLP238 T01890144
KGZH 201253Z AUTO 00000KT 10SM CLR 14/13 A3022 RMK AO2 SLP232 T01440128
KGZH 201153Z AUTO 00000KT 8SM CLR 11/11 A3022 RMK AO2 SLP231 T01110106 10128 20111 53006
KGZH 201053Z AUTO 00000KT 10SM CLR 12/11 A3021 RMK AO2 SLP228 T01170106
KGZH 200953Z AUTO 00000KT 8SM CLR 12/11 A3020 RMK AO2 SLP225 T01170106
KGZH 200853Z AUTO 00000KT 10SM CLR 12/11 A3020 RMK AO2 SLP225 T01170111 58001
KGZH 200753Z AUTO 00000KT 10SM CLR 12/11 A3020 RMK AO2 SLP225 T01220111
KGZH 200653Z AUTO 33003KT 10SM CLR 12/12 A3021 RMK AO2 SLP227 T01220117
KGZH 200553Z AUTO 00000KT 10SM CLR 13/12 A3020 RMK AO2 SLP225 T01280117 10178 20128 402670094 58005